sensor_id;sensor_type;location;lat;lon;timestamp;pressure;altitude;pressure_sealevel;temperature;humidity
63395;BME280;49531;-34.520;150.798;2022-08-01T00:02:01;100614.63;;;16.02;60.46
63395;BME280;49531;-34.520;150.798;2022-08-01T00:04:28;100621.28;;;16.00;60.33
63395;BME280;49531;-34.520;150.798;2022-08-01T00:06:55;100636.31;;;15.96;60.42
63395;BME280;49531;-34.520;150.798;2022-08-01T00:09:22;100627.41;;;15.95;60.43
63395;BME280;49531;-34.520;150.798;2022-08-01T00:11:49;100634.91;;;15.93;60.37
63395;BME280;49531;-34.520;150.798;2022-08-01T00:14:16;100617.09;;;15.92;60.38
63395;BME280;49531;-34.520;150.798;2022-08-01T00:16:43;100625.75;;;15.94;60.28
63395;BME280;49531;-34.520;150.798;2022-08-01T00:19:10;100623.06;;;15.94;60.19
63395;BME280;49531;-34.520;150.798;2022-08-01T00:21:37;100616.28;;;15.92;60.26
63395;BME280;49531;-34.520;150.798;2022-08-01T00:24:05;100611.72;;;15.92;60.16
63395;BME280;49531;-34.520;150.798;2022-08-01T00:26:32;100626.81;;;15.93;60.03
63395;BME280;49531;-34.520;150.798;2022-08-01T00:28:59;100618.97;;;15.92;60.05
63395;BME280;49531;-34.520;150.798;2022-08-01T00:31:26;100627.88;;;15.92;59.86
63395;BME280;49531;-34.520;150.798;2022-08-01T00:33:53;100620.38;;;15.94;59.61
63395;BME280;49531;-34.520;150.798;2022-08-01T00:36:20;100636.53;;;15.94;59.09
63395;BME280;49531;-34.520;150.798;2022-08-01T00:38:47;100618.97;;;15.92;58.60
63395;BME280;49531;-34.520;150.798;2022-08-01T00:41:14;100631.38;;;15.93;57.71
63395;BME280;49531;-34.520;150.798;2022-08-01T00:43:41;100630.78;;;15.91;57.87
63395;BME280;49531;-34.520;150.798;2022-08-01T00:46:08;100632.66;;;15.90;57.45
63395;BME280;49531;-34.520;150.798;2022-08-01T00:48:35;100626.69;;;15.88;57.12
63395;BME280;49531;-34.520;150.798;2022-08-01T00:51:04;100624.00;;;15.88;56.90
63395;BME280;49531;-34.520;150.798;2022-08-01T00:53:31;100637.22;;;15.90;56.68
63395;BME280;49531;-34.520;150.798;2022-08-01T00:55:58;100627.88;;;15.92;56.38
63395;BME280;49531;-34.520;150.798;2022-08-01T00:58:26;100627.50;;;16.00;56.00
63395;BME280;49531;-34.520;150.798;2022-08-01T01:00:56;100617.31;;;16.02;55.49
63395;BME280;49531;-34.520;150.798;2022-08-01T01:03:24;100624.47;;;16.09;55.38
63395;BME280;49531;-34.520;150.798;2022-08-01T01:17:52;100641.94;;;16.18;54.78
63395;BME280;49531;-34.520;150.798;2022-08-01T01:20:22;100636.56;;;16.18;54.52
63395;BME280;49531;-34.520;150.798;2022-08-01T01:23:10;100636.56;;;16.18;54.57
63395;BME280;49531;-34.520;150.798;2022-08-01T01:25:54;100633.84;;;16.18;54.13
63395;BME280;49531;-34.520;150.798;2022-08-01T01:31:21;100631.63;;;16.15;53.14
63395;BME280;49531;-34.520;150.798;2022-08-01T01:33:53;100631.84;;;16.13;53.24
63395;BME280;49531;-34.520;150.798;2022-08-01T01:36:21;100611.94;;;16.14;52.59
63395;BME280;49531;-34.520;150.798;2022-08-01T01:38:52;100633.28;;;16.16;51.65
63395;BME280;49531;-34.520;150.798;2022-08-01T01:41:21;100623.66;;;16.20;50.84
63395;BME280;49531;-34.520;150.798;2022-08-01T01:43:50;100624.84;;;16.24;49.87
63395;BME280;49531;-34.520;150.798;2022-08-01T01:46:19;100610.66;;;16.28;50.10
63395;BME280;49531;-34.520;150.798;2022-08-01T01:48:49;100629.19;;;16.25;49.84
63395;BME280;49531;-34.520;150.798;2022-08-01T01:51:17;100615.22;;;16.28;49.27
63395;BME280;49531;-34.520;150.798;2022-08-01T01:53:48;100633.88;;;16.29;49.22
63395;BME280;49531;-34.520;150.798;2022-08-01T01:56:17;100620.97;;;16.31;49.29
63395;BME280;49531;-34.520;150.798;2022-08-01T01:58:49;100612.66;;;16.33;48.97
63395;BME280;49531;-34.520;150.798;2022-08-01T02:01:18;100617.00;;;16.34;48.85
63395;BME280;49531;-34.520;150.798;2022-08-01T02:03:46;100613.34;;;16.40;48.73
63395;BME280;49531;-34.520;150.798;2022-08-01T02:06:16;100613.34;;;16.40;48.43
63395;BME280;49531;-34.520;150.798;2022-08-01T02:08:44;100607.94;;;16.40;48.82
63395;BME280;49531;-34.520;150.798;2022-08-01T02:11:13;100605.84;;;16.42;49.21
63395;BME280;49531;-34.520;150.798;2022-08-01T02:14:01;100602.31;;;16.53;49.33
63395;BME280;49531;-34.520;150.798;2022-08-01T02:16:33;100601.25;;;16.54;49.41
63395;BME280;49531;-34.520;150.798;2022-08-01T02:19:01;100595.28;;;16.52;48.99
63395;BME280;49531;-34.520;150.798;2022-08-01T02:21:32;100596.44;;;16.56;48.75
63395;BME280;49531;-34.520;150.798;2022-08-01T02:27:09;100591.75;;;16.52;48.31
63395;BME280;49531;-34.520;150.798;2022-08-01T02:29:52;100594.69;;;16.50;48.17
63395;BME280;49531;-34.520;150.798;2022-08-01T02:32:40;100593.06;;;16.49;48.06
63395;BME280;49531;-34.520;150.798;2022-08-01T02:35:18;100589.19;;;16.45;46.75
63395;BME280;49531;-34.520;150.798;2022-08-01T02:37:47;100593.53;;;16.46;46.66
63395;BME280;49531;-34.520;150.798;2022-08-01T02:40:17;100590.00;;;16.46;46.70
63395;BME280;49531;-34.520;150.798;2022-08-01T02:42:50;100588.72;;;16.48;46.55
63395;BME280;49531;-34.520;150.798;2022-08-01T02:45:24;100592.59;;;16.52;46.48
63395;BME280;49531;-34.520;150.798;2022-08-01T02:48:02;100580.28;;;16.56;46.17
63395;BME280;49531;-34.520;150.798;2022-08-01T02:50:34;100582.97;;;16.56;46.26
63395;BME280;49531;-34.520;150.798;2022-08-01T02:53:02;100579.81;;;16.59;45.75
63395;BME280;49531;-34.520;150.798;2022-08-01T02:55:33;100580.97;;;16.63;45.82
63395;BME280;49531;-34.520;150.798;2022-08-01T02:58:01;100570.66;;;16.60;45.97
63395;BME280;49531;-34.520;150.798;2022-08-01T03:00:30;100558.38;;;16.64;45.75
63395;BME280;49531;-34.520;150.798;2022-08-01T03:02:59;100565.16;;;16.67;46.05
63395;BME280;49531;-34.520;150.798;2022-08-01T03:05:28;100551.44;;;16.57;46.36
63395;BME280;49531;-34.520;150.798;2022-08-01T03:07:59;100560.72;;;16.49;46.83
63395;BME280;49531;-34.520;150.798;2022-08-01T03:10:28;100574.06;;;16.44;47.10
63395;BME280;49531;-34.520;150.798;2022-08-01T03:12:57;100572.19;;;16.45;47.01
63395;BME280;49531;-34.520;150.798;2022-08-01T03:15:26;100584.63;;;16.46;46.85
63395;BME280;49531;-34.520;150.798;2022-08-01T03:17:57;100565.75;;;16.46;46.77
63395;BME280;49531;-34.520;150.798;2022-08-01T03:20:27;100561.75;;;16.48;45.88
63395;BME280;49531;-34.520;150.798;2022-08-01T03:22:57;100568.78;;;16.49;45.27
63395;BME280;49531;-34.520;150.798;2022-08-01T03:25:26;100547.69;;;16.46;44.88
63395;BME280;49531;-34.520;150.798;2022-08-01T03:27:58;100544.75;;;16.48;44.18
63395;BME280;49531;-34.520;150.798;2022-08-01T03:30:27;100562.59;;;16.49;44.04
63395;BME280;49531;-34.520;150.798;2022-08-01T03:32:54;100550.41;;;16.46;43.92
63395;BME280;49531;-34.520;150.798;2022-08-01T03:35:23;100548.03;;;16.50;43.16
63395;BME280;49531;-34.520;150.798;2022-08-01T03:37:55;100528.13;;;16.51;43.86
63395;BME280;49531;-34.520;150.798;2022-08-01T03:40:35;100536.44;;;16.49;43.45
63395;BME280;49531;-34.520;150.798;2022-08-01T03:43:07;100538.09;;;16.50;42.87
63395;BME280;49531;-34.520;150.798;2022-08-01T03:45:40;100534.56;;;16.50;42.33
63395;BME280;49531;-34.520;150.798;2022-08-01T03:48:14;100534.34;;;16.51;42.22
63395;BME280;49531;-34.520;150.798;2022-08-01T03:50:50;100543.47;;;16.50;42.62
63395;BME280;49531;-34.520;150.798;2022-08-01T03:53:23;100544.28;;;16.51;42.59
63395;BME280;49531;-34.520;150.798;2022-08-01T03:55:53;100545.13;;;16.51;42.24
63395;BME280;49531;-34.520;150.798;2022-08-01T03:58:21;100542.41;;;16.51;42.84
63395;BME280;49531;-34.520;150.798;2022-08-01T04:00:49;100531.88;;;16.50;42.74
63395;BME280;49531;-34.520;150.798;2022-08-01T04:03:16;100524.38;;;16.52;42.65
63395;BME280;49531;-34.520;150.798;2022-08-01T04:05:43;100519.22;;;16.50;43.17
63395;BME280;49531;-34.520;150.798;2022-08-01T04:08:11;100517.34;;;16.51;43.15
63395;BME280;49531;-34.520;150.798;2022-08-01T04:10:38;100519.78;;;16.52;43.11
63395;BME280;49531;-34.520;150.798;2022-08-01T04:13:05;100522.50;;;16.52;42.82
63395;BME280;49531;-34.520;150.798;2022-08-01T04:15:33;100512.53;;;16.53;42.47
63395;BME280;49531;-34.520;150.798;2022-08-01T04:18:00;100510.66;;;16.53;42.69
63395;BME280;49531;-34.520;150.798;2022-08-01T04:20:27;100505.84;;;16.55;42.38
63395;BME280;49531;-34.520;150.798;2022-08-01T04:22:54;100505.03;;;16.55;42.61
63395;BME280;49531;-34.520;150.798;2022-08-01T04:25:35;100500.44;;;16.55;42.82
63395;BME280;49531;-34.520;150.798;2022-08-01T04:28:06;100508.53;;;16.55;43.13
63395;BME280;49531;-34.520;150.798;2022-08-01T04:30:38;100505.84;;;16.55;43.37
63395;BME280;49531;-34.520;150.798;2022-08-01T04:33:08;100492.38;;;16.55;43.58
63395;BME280;49531;-34.520;150.798;2022-08-01T04:35:39;100500.78;;;16.59;43.33
63395;BME280;49531;-34.520;150.798;2022-08-01T04:38:08;100502.66;;;16.58;43.10
63395;BME280;49531;-34.520;150.798;2022-08-01T04:40:40;100498.91;;;16.59;43.02
63395;BME280;49531;-34.520;150.798;2022-08-01T04:43:08;100499.72;;;16.60;42.88
63395;BME280;49531;-34.520;150.798;2022-08-01T04:45:35;100492.22;;;16.62;43.14
63395;BME280;49531;-34.520;150.798;2022-08-01T04:48:05;100496.81;;;16.61;43.11
63395;BME280;49531;-34.520;150.798;2022-08-01T04:50:35;100495.97;;;16.61;42.78
63395;BME280;49531;-34.520;150.798;2022-08-01T04:53:03;100490.59;;;16.61;42.50
63395;BME280;49531;-34.520;150.798;2022-08-01T04:55:31;100487.06;;;16.60;42.50
63395;BME280;49531;-34.520;150.798;2022-08-01T04:57:58;100480.84;;;16.60;42.70
63395;BME280;49531;-34.520;150.798;2022-08-01T05:00:25;100490.59;;;16.61;42.52
63395;BME280;49531;-34.520;150.798;2022-08-01T05:02:52;100504.06;;;16.61;42.48
63395;BME280;49531;-34.520;150.798;2022-08-01T05:05:19;100515.66;;;16.61;42.76
63395;BME280;49531;-34.520;150.798;2022-08-01T05:07:47;100513.78;;;16.62;42.52
63395;BME280;49531;-34.520;150.798;2022-08-01T05:10:14;100516.72;;;16.60;42.43
63395;BME280;49531;-34.520;150.798;2022-08-01T05:12:41;100511.91;;;16.62;42.75
63395;BME280;49531;-34.520;150.798;2022-08-01T05:15:08;100518.13;;;16.63;42.53
63395;BME280;49531;-34.520;150.798;2022-08-01T05:17:35;100522.72;;;16.62;42.24
63395;BME280;49531;-34.520;150.798;2022-08-01T05:20:02;100531.63;;;16.63;41.70
63395;BME280;49531;-34.520;150.798;2022-08-01T05:22:29;100512.16;;;16.61;41.32
63395;BME280;49531;-34.520;150.798;2022-08-01T05:24:56;100516.72;;;16.60;41.06
63395;BME280;49531;-34.520;150.798;2022-08-01T05:27:26;100510.75;;;16.58;40.44
63395;BME280;49531;-34.520;150.798;2022-08-01T05:29:53;100516.16;;;16.58;41.15
63395;BME280;49531;-34.520;150.798;2022-08-01T05:32:20;100512.63;;;16.58;41.56
63395;BME280;49531;-34.520;150.798;2022-08-01T05:34:47;100511.22;;;16.55;41.88
63395;BME280;49531;-34.520;150.798;2022-08-01T05:37:14;100518.75;;;16.53;42.11
63395;BME280;49531;-34.520;150.798;2022-08-01T05:39:41;100509.84;;;16.53;42.11
63395;BME280;49531;-34.520;150.798;2022-08-01T05:42:08;100517.09;;;16.52;42.31
63395;BME280;49531;-34.520;150.798;2022-08-01T05:44:35;100531.41;;;16.53;42.56
63395;BME280;49531;-34.520;150.798;2022-08-01T05:47:02;100539.72;;;16.51;42.25
63395;BME280;49531;-34.520;150.798;2022-08-01T05:49:30;100538.09;;;16.50;42.74
63395;BME280;49531;-34.520;150.798;2022-08-01T05:51:57;100547.00;;;16.51;43.01
63395;BME280;49531;-34.520;150.798;2022-08-01T05:54:24;100546.41;;;16.49;43.01
63395;BME280;49531;-34.520;150.798;2022-08-01T05:56:51;100542.88;;;16.48;43.27
63395;BME280;49531;-34.520;150.798;2022-08-01T05:59:18;100554.25;;;16.50;42.94
63395;BME280;49531;-34.520;150.798;2022-08-01T06:01:45;100544.06;;;16.52;43.09
63395;BME280;49531;-34.520;150.798;2022-08-01T06:04:12;100557.06;;;16.55;43.03
63395;BME280;49531;-34.520;150.798;2022-08-01T06:06:39;100546.88;;;16.57;42.73
63395;BME280;49531;-34.520;150.798;2022-08-01T06:09:06;100549.31;;;16.59;42.78
63395;BME280;49531;-34.520;150.798;2022-08-01T06:11:33;100547.44;;;16.59;43.01
63395;BME280;49531;-34.520;150.798;2022-08-01T06:14:00;100546.63;;;16.59;43.17
63395;BME280;49531;-34.520;150.798;2022-08-01T06:16:27;100544.50;;;16.61;42.72
63395;BME280;49531;-34.520;150.798;2022-08-01T06:18:54;100546.97;;;16.62;43.11
63395;BME280;49531;-34.520;150.798;2022-08-01T06:21:21;100543.22;;;16.63;43.31
63395;BME280;49531;-34.520;150.798;2022-08-01T06:23:48;100551.09;;;16.65;43.66
63395;BME280;49531;-34.520;150.798;2022-08-01T06:26:19;100552.50;;;16.67;43.87
63395;BME280;49531;-34.520;150.798;2022-08-01T06:28:47;100556.84;;;16.69;43.78
63395;BME280;49531;-34.520;150.798;2022-08-01T06:31:14;100541.25;;;16.71;43.93
63395;BME280;49531;-34.520;150.798;2022-08-01T06:33:42;100551.78;;;16.72;44.00
63395;BME280;49531;-34.520;150.798;2022-08-01T06:36:09;100559.88;;;16.72;44.18
63395;BME280;49531;-34.520;150.798;2022-08-01T06:38:36;100558.81;;;16.73;43.62
63395;BME280;49531;-34.520;150.798;2022-08-01T06:41:04;100559.63;;;16.74;43.68
63395;BME280;49531;-34.520;150.798;2022-08-01T06:43:31;100573.13;;;16.74;43.73
63395;BME280;49531;-34.520;150.798;2022-08-01T06:45:58;100572.06;;;16.75;43.34
63395;BME280;49531;-34.520;150.798;2022-08-01T06:48:25;100574.78;;;16.75;43.96
63395;BME280;49531;-34.520;150.798;2022-08-01T06:50:52;100560.47;;;16.74;43.70
63395;BME280;49531;-34.520;150.798;2022-08-01T06:53:37;100582.84;;;16.75;43.57
63395;BME280;49531;-34.520;150.798;2022-08-01T06:56:06;100582.84;;;16.75;43.92
63395;BME280;49531;-34.520;150.798;2022-08-01T06:58:35;100581.81;;;16.76;43.78
63395;BME280;49531;-34.520;150.798;2022-08-01T07:01:04;100587.19;;;16.76;43.68
63395;BME280;49531;-34.520;150.798;2022-08-01T07:03:35;100594.22;;;16.77;43.65
63395;BME280;49531;-34.520;150.798;2022-08-01T07:06:02;100592.59;;;16.76;43.87
63395;BME280;49531;-34.520;150.798;2022-08-01T07:08:30;100593.16;;;16.78;43.87
63395;BME280;49531;-34.520;150.798;2022-08-01T07:10:57;100594.22;;;16.77;43.89
63395;BME280;49531;-34.520;150.798;2022-08-01T07:13:28;100593.66;;;16.75;43.79
63395;BME280;49531;-34.520;150.798;2022-08-01T07:15:57;100587.19;;;16.76;43.82
63395;BME280;49531;-34.520;150.798;2022-08-01T07:18:24;100597.41;;;16.74;43.78
63395;BME280;49531;-34.520;150.798;2022-08-01T07:20:51;100586.63;;;16.74;42.95
63395;BME280;49531;-34.520;150.798;2022-08-01T07:23:18;100592.25;;;16.72;43.35
63395;BME280;49531;-34.520;150.798;2022-08-01T07:25:45;100588.72;;;16.72;43.29
63395;BME280;49531;-34.520;150.798;2022-08-01T07:28:14;100612.19;;;16.71;43.35
63395;BME280;49531;-34.520;150.798;2022-08-01T07:30:41;100614.06;;;16.71;43.46
63395;BME280;49531;-34.520;150.798;2022-08-01T07:33:10;100617.00;;;16.69;43.69
63395;BME280;49531;-34.520;150.798;2022-08-01T07:35:38;100624.03;;;16.70;43.74
63395;BME280;49531;-34.520;150.798;2022-08-01T07:38:06;100622.63;;;16.67;43.79
63395;BME280;49531;-34.520;150.798;2022-08-01T07:40:34;100638.78;;;16.67;43.93
63395;BME280;49531;-34.520;150.798;2022-08-01T07:43:01;100643.59;;;16.65;43.61
63395;BME280;49531;-34.520;150.798;2022-08-01T07:45:28;100627.66;;;16.64;42.71
63395;BME280;49531;-34.520;150.798;2022-08-01T07:47:56;100634.06;;;16.63;43.27
63395;BME280;49531;-34.520;150.798;2022-08-01T07:50:23;100634.06;;;16.63;43.33
63395;BME280;49531;-34.520;150.798;2022-08-01T07:52:50;100631.63;;;16.61;43.65
63395;BME280;49531;-34.520;150.798;2022-08-01T07:55:17;100630.78;;;16.61;43.72
63395;BME280;49531;-34.520;150.798;2022-08-01T07:57:44;100627.28;;;16.60;43.67
63395;BME280;49531;-34.520;150.798;2022-08-01T08:00:12;100641.00;;;16.59;43.67
63395;BME280;49531;-34.520;150.798;2022-08-01T08:02:39;100643.94;;;16.57;43.70
63395;BME280;49531;-34.520;150.798;2022-08-01T08:05:07;100639.59;;;16.56;43.48
63395;BME280;49531;-34.520;150.798;2022-08-01T08:07:34;100639.00;;;16.54;43.59
63395;BME280;49531;-34.520;150.798;2022-08-01T08:10:01;100648.16;;;16.53;43.89
63395;BME280;49531;-34.520;150.798;2022-08-01T08:12:28;100655.66;;;16.51;43.80
63395;BME280;49531;-34.520;150.798;2022-08-01T08:14:56;100662.09;;;16.50;43.75
63395;BME280;49531;-34.520;150.798;2022-08-01T08:17:25;100654.47;;;16.47;43.46
63395;BME280;49531;-34.520;150.798;2022-08-01T08:19:52;100666.31;;;16.46;43.35
63395;BME280;49531;-34.520;150.798;2022-08-01T08:22:20;100661.38;;;16.43;43.56
63395;BME280;49531;-34.520;150.798;2022-08-01T08:24:47;100666.78;;;16.43;43.53
63395;BME280;49531;-34.520;150.798;2022-08-01T08:27:14;100681.31;;;16.42;43.39
63395;BME280;49531;-34.520;150.798;2022-08-01T08:29:41;100661.84;;;16.40;43.38
63395;BME280;49531;-34.520;150.798;2022-08-01T08:32:09;100672.06;;;16.38;43.53
63395;BME280;49531;-34.520;150.798;2022-08-01T08:34:36;100675.81;;;16.37;43.59
63395;BME280;49531;-34.520;150.798;2022-08-01T08:37:03;100669.84;;;16.35;43.17
63395;BME280;49531;-34.520;150.798;2022-08-01T08:39:30;100673.59;;;16.34;42.88
63395;BME280;49531;-34.520;150.798;2022-08-01T08:41:59;100688.13;;;16.33;43.35
63395;BME280;49531;-34.520;150.798;2022-08-01T08:44:28;100681.09;;;16.32;43.60
63395;BME280;49531;-34.520;150.798;2022-08-01T08:46:56;100677.81;;;16.30;43.49
63395;BME280;49531;-34.520;150.798;2022-08-01T08:49:26;100680.75;;;16.28;43.46
63395;BME280;49531;-34.520;150.798;2022-08-01T08:51:59;100694.44;;;16.27;43.19
63395;BME280;49531;-34.520;150.798;2022-08-01T08:54:27;100687.66;;;16.24;43.67
63395;BME280;49531;-34.520;150.798;2022-08-01T08:56:55;100684.34;;;16.22;43.13
63395;BME280;49531;-34.520;150.798;2022-08-01T08:59:23;100683.78;;;16.20;43.03
63395;BME280;49531;-34.520;150.798;2022-08-01T09:01:51;100691.25;;;16.18;43.19
63395;BME280;49531;-34.520;150.798;2022-08-01T09:04:20;100694.41;;;16.15;43.23
63395;BME280;49531;-34.520;150.798;2022-08-01T09:06:49;100698.97;;;16.15;43.34
63395;BME280;49531;-34.520;150.798;2022-08-01T09:09:16;100705.44;;;16.14;43.29
63395;BME280;49531;-34.520;150.798;2022-08-01T09:11:43;100708.34;;;16.12;43.34
63395;BME280;49531;-34.520;150.798;2022-08-01T09:14:16;100703.19;;;16.11;43.35
63395;BME280;49531;-34.520;150.798;2022-08-01T09:17:00;100709.63;;;16.10;43.37
63395;BME280;49531;-34.520;150.798;2022-08-01T09:19:35;100702.84;;;16.07;43.41
63395;BME280;49531;-34.520;150.798;2022-08-01T09:22:05;100713.84;;;16.06;43.44
63395;BME280;49531;-34.520;150.798;2022-08-01T09:24:34;100716.75;;;16.04;43.50
63395;BME280;49531;-34.520;150.798;2022-08-01T09:27:14;100720.50;;;16.03;43.71
63395;BME280;49531;-34.520;150.798;2022-08-01T09:29:43;100736.91;;;16.01;43.63
63395;BME280;49531;-34.520;150.798;2022-08-01T09:32:11;100730.13;;;15.99;43.70
63395;BME280;49531;-34.520;150.798;2022-08-01T09:34:38;100739.25;;;15.98;43.27
63395;BME280;49531;-34.520;150.798;2022-08-01T09:37:05;100734.09;;;15.96;43.24
63395;BME280;49531;-34.520;150.798;2022-08-01T09:39:34;100750.25;;;15.96;43.55
63395;BME280;49531;-34.520;150.798;2022-08-01T09:42:24;100735.59;;;15.92;43.84
63395;BME280;49531;-34.520;150.798;2022-08-01T09:44:51;100747.19;;;15.93;43.63
63395;BME280;49531;-34.520;150.798;2022-08-01T09:47:20;100741.44;;;15.89;43.17
63395;BME280;49531;-34.520;150.798;2022-08-01T09:49:56;100750.81;;;15.87;43.41
63395;BME280;49531;-34.520;150.798;2022-08-01T09:52:25;100756.41;;;15.85;43.69
63395;BME280;49531;-34.520;150.798;2022-08-01T09:57:22;100765.78;;;15.83;43.88
63395;BME280;49531;-34.520;150.798;2022-08-01T09:59:55;100749.03;;;15.81;43.78
63395;BME280;49531;-34.520;150.798;2022-08-01T10:02:35;100757.31;;;15.79;43.84
63395;BME280;49531;-34.520;150.798;2022-08-01T10:05:09;100760.03;;;15.79;43.54
63395;BME280;49531;-34.520;150.798;2022-08-01T10:07:55;100767.50;;;15.77;43.74
63395;BME280;49531;-34.520;150.798;2022-08-01T10:10:23;100752.63;;;15.75;43.48
63395;BME280;49531;-34.520;150.798;2022-08-01T10:12:52;100761.16;;;15.72;43.87
63395;BME280;49531;-34.520;150.798;2022-08-01T10:15:19;100769.00;;;15.73;43.59
63395;BME280;49531;-34.520;150.798;2022-08-01T10:17:58;100764.88;;;15.71;43.69
63395;BME280;49531;-34.520;150.798;2022-08-01T10:20:31;100761.81;;;15.67;43.56
63395;BME280;49531;-34.520;150.798;2022-08-01T10:23:02;100753.75;;;15.67;43.48
63395;BME280;49531;-34.520;150.798;2022-08-01T10:25:34;100751.50;;;15.64;43.74
63395;BME280;49531;-34.520;150.798;2022-08-01T10:28:10;100745.53;;;15.62;43.88
63395;BME280;49531;-34.520;150.798;2022-08-01T10:30:41;100753.59;;;15.62;43.81
63395;BME280;49531;-34.520;150.798;2022-08-01T10:33:10;100754.66;;;15.61;44.03
63395;BME280;49531;-34.520;150.798;2022-08-01T10:35:40;100755.97;;;15.58;43.67
63395;BME280;49531;-34.520;150.798;2022-08-01T10:38:08;100750.56;;;15.58;43.78
63395;BME280;49531;-34.520;150.798;2022-08-01T10:40:36;100758.88;;;15.57;43.67
63395;BME280;49531;-34.520;150.798;2022-08-01T10:43:03;100747.47;;;15.55;43.98
63395;BME280;49531;-34.520;150.798;2022-08-01T10:45:31;100758.47;;;15.53;43.63
63395;BME280;49531;-34.520;150.798;2022-08-01T10:48:14;100748.97;;;15.51;43.81
63395;BME280;49531;-34.520;150.798;2022-08-01T10:50:48;100765.56;;;15.48;43.72
63395;BME280;49531;-34.520;150.798;2022-08-01T10:53:21;100758.56;;;15.47;43.72
63395;BME280;49531;-34.520;150.798;2022-08-01T10:58:28;100751.75;;;15.44;43.65
63395;BME280;49531;-34.520;150.798;2022-08-01T11:01:14;100772.69;;;15.42;43.66
63395;BME280;49531;-34.520;150.798;2022-08-01T11:03:57;100768.56;;;15.40;43.55
63395;BME280;49531;-34.520;150.798;2022-08-01T11:09:04;100776.50;;;15.34;43.64
63395;BME280;49531;-34.520;150.798;2022-08-01T11:11:32;100784.56;;;15.34;44.03
63395;BME280;49531;-34.520;150.798;2022-08-01T11:16:40;100775.28;;;15.30;43.66
63395;BME280;49531;-34.520;150.798;2022-08-01T11:19:08;100778.19;;;15.29;43.88
63395;BME280;49531;-34.520;150.798;2022-08-01T11:27:22;100803.09;;;15.24;43.98
63395;BME280;49531;-34.520;150.798;2022-08-01T11:32:53;100788.44;;;15.20;43.77
63395;BME280;49531;-34.520;150.798;2022-08-01T11:35:22;100787.88;;;15.18;43.99
63395;BME280;49531;-34.520;150.798;2022-08-01T11:37:54;100793.47;;;15.17;44.15
63395;BME280;49531;-34.520;150.798;2022-08-01T11:45:50;100794.13;;;15.12;44.16
63395;BME280;49531;-34.520;150.798;2022-08-01T11:48:19;100792.47;;;15.11;44.35
63395;BME280;49531;-34.520;150.798;2022-08-01T11:50:47;100800.78;;;15.10;44.17
63395;BME280;49531;-34.520;150.798;2022-08-01T11:53:14;100790.22;;;15.08;44.41
63395;BME280;49531;-34.520;150.798;2022-08-01T11:55:49;100784.69;;;15.03;44.38
63395;BME280;49531;-34.520;150.798;2022-08-01T11:58:24;100802.47;;;15.04;44.53
63395;BME280;49531;-34.520;150.798;2022-08-01T12:00:53;100800.84;;;15.03;44.45
63395;BME280;49531;-34.520;150.798;2022-08-01T12:03:28;100798.38;;;15.01;44.48
63395;BME280;49531;-34.520;150.798;2022-08-01T12:05:56;100805.63;;;15.01;44.60
63395;BME280;49531;-34.520;150.798;2022-08-01T12:08:28;100802.53;;;14.97;44.51
63395;BME280;49531;-34.520;150.798;2022-08-01T12:10:55;100803.38;;;14.98;44.68
63395;BME280;49531;-34.520;150.798;2022-08-01T12:13:22;100796.56;;;14.95;44.63
63395;BME280;49531;-34.520;150.798;2022-08-01T12:15:50;100807.53;;;14.94;44.58
63395;BME280;49531;-34.520;150.798;2022-08-01T12:18:17;100802.38;;;14.92;44.86
63395;BME280;49531;-34.520;150.798;2022-08-01T12:20:46;100802.59;;;14.91;44.78
63395;BME280;49531;-34.520;150.798;2022-08-01T12:23:14;100810.66;;;14.91;44.84
63395;BME280;49531;-34.520;150.798;2022-08-01T12:25:42;100804.69;;;14.89;44.74
63395;BME280;49531;-34.520;150.798;2022-08-01T12:28:14;100805.94;;;14.86;44.69
63395;BME280;49531;-34.520;150.798;2022-08-01T12:30:41;100810.50;;;14.86;44.86
63395;BME280;49531;-34.520;150.798;2022-08-01T12:33:09;100807.00;;;14.85;44.84
63395;BME280;49531;-34.520;150.798;2022-08-01T12:35:40;100810.94;;;14.83;44.88
63395;BME280;49531;-34.520;150.798;2022-08-01T12:38:16;100811.16;;;14.81;44.96
63395;BME280;49531;-34.520;150.798;2022-08-01T12:40:46;100815.13;;;14.79;45.03
63395;BME280;49531;-34.520;150.798;2022-08-01T12:43:19;100812.66;;;14.77;45.12
63395;BME280;49531;-34.520;150.798;2022-08-01T12:45:48;100808.13;;;14.78;45.14
63395;BME280;49531;-34.520;150.798;2022-08-01T12:48:17;100809.38;;;14.75;45.20
63395;BME280;49531;-34.520;150.798;2022-08-01T12:50:47;100810.41;;;14.74;45.25
63395;BME280;49531;-34.520;150.798;2022-08-01T12:53:16;100801.97;;;14.71;45.12
63395;BME280;49531;-34.520;150.798;2022-08-01T12:55:49;100801.97;;;14.71;45.17
63395;BME280;49531;-34.520;150.798;2022-08-01T12:58:18;100804.66;;;14.71;45.37
63395;BME280;49531;-34.520;150.798;2022-08-01T13:00:48;100803.22;;;14.68;45.48
63395;BME280;49531;-34.520;150.798;2022-08-01T13:03:18;100800.75;;;14.66;45.39
63395;BME280;49531;-34.520;150.798;2022-08-01T13:08:36;100802.84;;;14.64;45.54
63395;BME280;49531;-34.520;150.798;2022-08-01T13:11:07;100799.53;;;14.62;45.60
63395;BME280;49531;-34.520;150.798;2022-08-01T13:13:42;100803.28;;;14.61;45.60
63395;BME280;49531;-34.520;150.798;2022-08-01T13:16:13;100805.34;;;14.59;45.66
63395;BME280;49531;-34.520;150.798;2022-08-01T13:18:41;100812.81;;;14.57;45.13